createdAt,value
2022-08-31T00:00:10.894Z,101003.41
2022-08-31T00:02:57.349Z,101011.19
2022-08-31T00:05:24.489Z,101002.91
2022-08-31T00:07:52.719Z,101009.78
2022-08-31T00:10:31.803Z,101003.06
2022-08-31T00:16:54.401Z,101005.25
2022-08-31T00:19:21.494Z,101000.13
2022-08-31T00:21:48.343Z,101000.88
2022-08-31T00:24:15.288Z,100999.06
2022-08-31T00:26:42.807Z,100997.41
2022-08-31T00:29:10.323Z,100995.91
2022-08-31T00:31:37.239Z,101007.53
2022-08-31T00:34:04.545Z,101003.56
2022-08-31T00:36:31.570Z,101006.97
2022-08-31T00:38:58.540Z,101006.63
2022-08-31T00:41:29.514Z,100997.41
2022-08-31T00:43:58.305Z,101000.44
2022-08-31T00:46:35.414Z,100993.94
2022-08-31T00:49:05.013Z,100999.22
2022-08-31T00:51:36.584Z,100997.34
2022-08-31T00:54:04.788Z,101003.94
2022-08-31T00:56:33.656Z,101010.66
2022-08-31T00:59:00.786Z,101010.53
2022-08-31T01:01:28.139Z,100999.16
2022-08-31T01:03:56.248Z,101000.69
2022-08-31T01:06:23.696Z,100989.91
2022-08-31T01:08:51.482Z,100999.03
2022-08-31T01:11:20.414Z,100988.97
2022-08-31T01:13:47.791Z,100997.50
2022-08-31T01:16:24.575Z,101000.72
2022-08-31T01:18:52.914Z,100998.09
2022-08-31T01:21:30.446Z,101005.91
2022-08-31T01:24:01.620Z,101001.69
2022-08-31T01:26:30.146Z,101002.78
2022-08-31T01:29:01.713Z,101000.75
2022-08-31T01:31:34.382Z,101003.72
2022-08-31T01:34:01.666Z,101001.22
2022-08-31T01:36:28.862Z,101000.38
2022-08-31T01:38:57.758Z,101011.41
2022-08-31T01:41:24.944Z,101005.91
2022-08-31T01:43:53.186Z,101013.53
2022-08-31T01:46:20.322Z,101006.13
2022-08-31T01:48:48.191Z,101000.63
2022-08-31T01:51:19.123Z,101003.38
2022-08-31T01:53:48.638Z,101004.34
2022-08-31T01:56:30.942Z,101004.56
2022-08-31T01:58:58.290Z,101006.25
2022-08-31T02:01:34.362Z,101000.59
2022-08-31T02:04:04.040Z,101000.84
2022-08-31T02:06:31.688Z,101005.50
2022-08-31T02:08:59.100Z,101004.69
2022-08-31T02:11:26.566Z,101003.59
2022-08-31T02:13:53.572Z,101005.16
2022-08-31T02:16:20.653Z,100998.22
2022-08-31T02:18:47.603Z,101000.59
2022-08-31T02:21:14.405Z,101002.28
2022-08-31T02:23:42.558Z,100999.53
2022-08-31T02:26:10.107Z,101007.53
2022-08-31T02:28:37.384Z,101001.31
2022-08-31T02:31:04.444Z,100995.81
2022-08-31T02:33:31.505Z,100999.66
2022-08-31T02:35:58.795Z,100997.84
2022-08-31T02:38:26.684Z,101001.59
2022-08-31T02:40:54.013Z,101005.03
2022-08-31T02:43:25.215Z,101004.09
2022-08-31T02:45:53.044Z,101005.28
2022-08-31T02:48:21.921Z,101003.72
2022-08-31T02:50:52.597Z,101003.50
2022-08-31T02:53:21.869Z,101006.63
2022-08-31T02:55:49.611Z,101001.44
2022-08-31T02:58:20.713Z,100993.78
2022-08-31T03:00:50.349Z,100998.59
2022-08-31T03:03:17.489Z,100987.56
2022-08-31T03:05:44.470Z,100997.13
2022-08-31T03:08:11.436Z,100990.56
2022-08-31T03:10:38.508Z,100984.56
2022-08-31T03:13:05.346Z,100984.22
2022-08-31T03:15:32.293Z,100985.66
2022-08-31T03:17:59.364Z,100986.97
2022-08-31T03:20:27.533Z,100989.97
2022-08-31T03:22:55.379Z,100984.06
2022-08-31T03:25:23.556Z,100990.91
2022-08-31T03:27:50.520Z,100990.44
2022-08-31T03:30:20.451Z,100993.41
2022-08-31T03:32:48.322Z,100994.13
2022-08-31T03:35:15.633Z,100996.31
2022-08-31T03:37:42.546Z,101000.34
2022-08-31T03:40:11.036Z,101000.47
2022-08-31T03:42:38.009Z,100998.94
2022-08-31T03:45:07.993Z,101000.13
2022-08-31T03:47:36.223Z,101002.41
2022-08-31T03:50:11.563Z,100997.38
2022-08-31T03:52:38.878Z,100996.41
2022-08-31T03:55:07.433Z,100989.59
2022-08-31T03:57:35.759Z,100992.94
2022-08-31T04:00:04.298Z,100993.56
2022-08-31T04:02:36.823Z,100992.47
2022-08-31T04:05:04.662Z,100994.25
2022-08-31T04:07:42.180Z,100998.81
2022-08-31T04:10:11.272Z,100991.16
2022-08-31T04:12:38.294Z,100989.13
2022-08-31T04:15:06.017Z,100980.50
2022-08-31T04:17:33.763Z,100985.38
2022-08-31T04:20:00.878Z,100993.06
2022-08-31T04:22:27.836Z,100992.09
2022-08-31T04:24:54.636Z,100992.22
2022-08-31T04:27:21.420Z,100993.03
2022-08-31T04:29:48.208Z,100989.09
2022-08-31T04:32:15.015Z,100996.06
2022-08-31T04:34:41.870Z,100996.06
2022-08-31T04:37:10.445Z,100999.38
2022-08-31T04:39:50.403Z,101003.84
2022-08-31T04:42:18.023Z,101001.56
2022-08-31T04:44:44.879Z,100989.34
2022-08-31T04:47:11.745Z,100998.22
2022-08-31T04:49:38.874Z,101000.84
2022-08-31T04:52:06.812Z,101003.59
2022-08-31T04:54:33.692Z,101000.00
2022-08-31T04:57:00.731Z,101000.09
2022-08-31T04:59:27.667Z,100996.53
2022-08-31T05:01:55.620Z,101001.66
2022-08-31T05:04:26.018Z,101004.44
2022-08-31T05:06:53.365Z,101010.41
2022-08-31T05:09:22.946Z,101001.94
2022-08-31T05:11:52.565Z,101019.19
2022-08-31T05:14:19.751Z,101020.50
2022-08-31T05:16:46.567Z,101014.38
2022-08-31T05:19:13.982Z,101020.50
2022-08-31T05:21:42.758Z,101015.84
2022-08-31T05:24:14.383Z,101012.97
2022-08-31T05:26:44.565Z,101009.72
2022-08-31T05:29:15.746Z,101014.38
2022-08-31T05:31:45.514Z,101016.53
2022-08-31T05:34:15.281Z,101008.63
2022-08-31T05:36:43.545Z,101013.56
2022-08-31T05:39:12.028Z,101015.59
2022-08-31T05:41:41.004Z,101014.75
2022-08-31T05:44:08.536Z,101010.41
2022-08-31T05:46:36.156Z,101013.41
2022-08-31T05:49:04.099Z,101023.00
2022-08-31T05:51:38.570Z,101022.41
2022-08-31T05:54:06.312Z,101021.81
2022-08-31T05:56:33.346Z,101025.28
2022-08-31T05:59:00.262Z,101028.28
2022-08-31T06:01:37.215Z,101026.94
2022-08-31T06:04:05.347Z,101027.44
2022-08-31T06:06:32.193Z,101026.84
2022-08-31T06:08:59.599Z,101018.09
2022-08-31T06:11:30.082Z,101027.34
2022-08-31T06:13:59.361Z,101023.72
2022-08-31T06:16:27.156Z,101026.00
2022-08-31T06:18:55.785Z,101023.47
2022-08-31T06:21:30.447Z,101028.16
2022-08-31T06:23:58.415Z,101020.88
2022-08-31T06:26:28.157Z,101027.34
2022-08-31T06:28:58.073Z,101026.13
2022-08-31T06:31:30.637Z,101026.47
2022-08-31T06:33:59.149Z,101023.59
2022-08-31T06:36:29.156Z,101020.47
2022-08-31T06:39:17.026Z,101032.09
2022-08-31T06:41:43.854Z,101032.69
2022-08-31T06:44:14.067Z,101026.19
2022-08-31T06:46:42.045Z,101025.72
2022-08-31T06:49:14.845Z,101031.44
2022-08-31T06:51:43.483Z,101029.97
2022-08-31T06:54:29.148Z,101028.06
2022-08-31T06:56:59.501Z,101035.75
2022-08-31T06:59:29.362Z,101041.50
2022-08-31T07:02:00.170Z,101030.81
2022-08-31T07:04:28.172Z,101032.47
2022-08-31T07:06:55.285Z,101040.53
2022-08-31T07:09:22.970Z,101035.84
2022-08-31T07:11:52.336Z,101047.91
2022-08-31T07:14:22.755Z,101042.66
2022-08-31T07:16:53.542Z,101042.16
2022-08-31T07:19:22.066Z,101041.75
2022-08-31T07:21:54.743Z,101044.78
2022-08-31T07:24:27.896Z,101037.78
2022-08-31T07:27:00.424Z,101037.28
2022-08-31T07:29:30.564Z,101046.22
2022-08-31T07:31:59.515Z,101049.16
2022-08-31T07:34:29.372Z,101047.69
2022-08-31T07:37:17.337Z,101047.19
2022-08-31T07:40:07.444Z,101039.13
2022-08-31T07:42:41.259Z,101039.66
2022-08-31T07:45:12.676Z,101042.41
2022-08-31T07:47:47.134Z,101031.47
2022-08-31T07:50:16.953Z,101037.34
2022-08-31T07:52:53.177Z,101042.50
2022-08-31T07:55:23.123Z,101032.81
2022-08-31T07:57:53.507Z,101039.00
2022-08-31T08:00:28.457Z,101036.16
2022-08-31T08:02:56.195Z,101034.56
2022-08-31T08:05:28.779Z,101039.31
2022-08-31T08:08:12.251Z,101030.84
2022-08-31T08:10:43.834Z,101039.56
2022-08-31T08:13:16.131Z,101038.22
2022-08-31T08:15:42.962Z,101039.63
2022-08-31T08:18:12.292Z,101038.56
2022-08-31T08:20:40.254Z,101039.06
2022-08-31T08:23:34.213Z,101042.25
2022-08-31T08:26:21.153Z,101048.75
2022-08-31T08:28:50.931Z,101050.25
2022-08-31T08:31:24.801Z,101041.78
2022-08-31T08:33:52.772Z,101050.25
2022-08-31T08:36:20.216Z,101050.75
2022-08-31T08:38:50.590Z,101044.72
2022-08-31T08:41:21.870Z,101038.28
2022-08-31T08:43:53.217Z,101036.25
2022-08-31T08:46:58.696Z,101037.81
2022-08-31T08:49:28.797Z,101040.25
2022-08-31T08:52:04.268Z,101046.28
2022-08-31T08:54:42.466Z,101052.22
2022-08-31T08:57:20.938Z,101047.19
2022-08-31T08:59:51.189Z,101040.47
2022-08-31T09:02:40.449Z,101045.25
2022-08-31T09:05:15.461Z,101042.19
2022-08-31T09:08:16.730Z,101041.00
2022-08-31T09:11:00.608Z,101047.75
2022-08-31T09:13:45.964Z,101039.56
2022-08-31T09:16:48.551Z,101029.47
2022-08-31T09:19:18.079Z,101042.81
2022-08-31T09:21:53.821Z,101043.22
2022-08-31T09:24:26.889Z,101047.09
2022-08-31T09:26:56.401Z,101045.16
2022-08-31T09:29:27.195Z,101031.44
2022-08-31T09:32:06.461Z,101033.84
2022-08-31T09:34:41.178Z,101041.22
2022-08-31T09:37:16.599Z,101037.19
2022-08-31T09:39:47.767Z,101040.75
2022-08-31T09:42:41.190Z,101049.97
2022-08-31T09:45:17.700Z,101042.41
2022-08-31T09:47:52.405Z,101035.31
2022-08-31T09:50:35.757Z,101038.13
2022-08-31T09:53:42.647Z,101035.72
2022-08-31T09:56:15.739Z,101027.25
2022-08-31T09:59:00.709Z,101027.25
2022-08-31T10:01:38.853Z,101031.44
2022-08-31T10:04:16.101Z,101028.28
2022-08-31T10:07:11.523Z,101022.50
2022-08-31T10:10:02.466Z,101027.25
2022-08-31T10:13:04.294Z,101013.22
2022-08-31T10:15:48.558Z,101016.56
2022-08-31T10:18:39.665Z,101020.34
2022-08-31T10:21:11.593Z,101011.66
2022-08-31T10:24:06.517Z,101011.38
2022-08-31T10:26:53.576Z,101015.34
2022-08-31T10:29:33.497Z,101004.81
2022-08-31T10:32:08.701Z,101012.34
2022-08-31T10:35:07.326Z,101012.91
2022-08-31T10:38:10.311Z,101007.94
2022-08-31T10:40:49.687Z,101003.56
2022-08-31T10:43:18.897Z,101000.88
2022-08-31T10:45:49.569Z,101003.06
2022-08-31T10:48:22.569Z,100990.59
2022-08-31T10:51:36.861Z,100992.25
2022-08-31T10:54:18.354Z,100982.84
2022-08-31T10:57:22.319Z,100986.44
2022-08-31T11:00:32.514Z,100991.16
2022-08-31T11:03:21.812Z,100993.41
2022-08-31T11:06:21.100Z,100977.56
2022-08-31T11:09:26.712Z,100990.59
2022-08-31T11:12:07.101Z,100985.03
2022-08-31T11:14:58.710Z,100973.66
2022-08-31T11:17:37.413Z,100991.16
2022-08-31T11:20:21.005Z,100978.94
2022-08-31T11:23:07.863Z,100980.31
2022-08-31T11:25:52.902Z,100973.94
2022-08-31T11:28:42.233Z,100966.72
2022-08-31T11:31:24.140Z,100966.69
2022-08-31T11:34:15.501Z,100956.13
2022-08-31T11:36:51.678Z,100954.75
2022-08-31T11:39:33.846Z,100941.41
2022-08-31T11:42:01.562Z,100939.19
2022-08-31T11:44:39.644Z,100934.34
2022-08-31T11:47:29.620Z,100918.09
2022-08-31T11:50:05.761Z,100916.06
2022-08-31T11:52:53.906Z,100924.38
2022-08-31T11:55:23.304Z,100930.41
2022-08-31T11:58:20.958Z,100919.13
2022-08-31T12:01:30.104Z,100920.94
2022-08-31T12:04:06.436Z,100917.13
2022-08-31T12:06:36.531Z,100925.50
2022-08-31T12:09:07.249Z,100924.13
2022-08-31T12:11:50.093Z,100914.16
2022-08-31T12:14:51.256Z,100907.66
2022-08-31T12:17:31.261Z,100904.75
2022-08-31T12:20:12.411Z,100909.25
2022-08-31T12:23:20.618Z,100901.47
2022-08-31T12:26:00.519Z,100891.41
2022-08-31T12:28:32.584Z,100903.69
2022-08-31T12:31:05.997Z,100897.03
2022-08-31T12:33:36.718Z,100901.22
2022-08-31T12:36:19.325Z,100896.81
2022-08-31T12:38:46.379Z,100895.47
2022-08-31T12:41:14.586Z,100888.00
2022-08-31T12:43:46.988Z,100878.47
2022-08-31T12:46:27.159Z,100890.28
2022-08-31T12:49:21.927Z,100878.47
2022-08-31T12:51:57.158Z,100866.97
2022-08-31T12:55:08.885Z,100870.41
2022-08-31T12:57:48.761Z,100875.59
2022-08-31T13:00:27.583Z,100877.22
2022-08-31T13:03:03.065Z,100874.41
2022-08-31T13:05:36.026Z,100873.78
2022-08-31T13:08:23.222Z,100883.09
2022-08-31T13:10:50.857Z,100868.19
2022-08-31T13:13:28.333Z,100867.97
2022-08-31T13:16:01.345Z,100858.72
2022-08-31T13:19:03.493Z,100858.56
2022-08-31T13:21:31.204Z,100861.69
2022-08-31T13:24:09.093Z,100879.59
2022-08-31T13:26:36.719Z,100864.88
2022-08-31T13:29:07.785Z,100866.41
2022-08-31T13:31:47.612Z,100864.53
2022-08-31T13:34:15.789Z,100867.31
2022-08-31T13:36:53.610Z,100854.44
2022-08-31T13:39:27.294Z,100857.41
2022-08-31T13:42:07.311Z,100844.22
2022-08-31T13:44:39.902Z,100837.97
2022-08-31T13:47:27.600Z,100844.38
2022-08-31T13:50:18.423Z,100834.84
2022-08-31T13:53:09.665Z,100827.94
2022-08-31T13:55:43.851Z,100829.56
2022-08-31T13:58:27.264Z,100831.78
2022-08-31T14:01:15.048Z,100826.41
2022-08-31T14:04:00.152Z,100830.94
2022-08-31T14:06:34.992Z,100829.25
2022-08-31T14:09:15.917Z,100845.13
2022-08-31T14:11:53.619Z,100824.47
2022-08-31T14:14:39.982Z,100821.97
2022-08-31T14:17:15.652Z,100814.22
2022-08-31T14:19:44.422Z,100820.56
2022-08-31T14:22:32.526Z,100816.22
2022-08-31T14:25:00.970Z,100813.84
2022-08-31T14:27:29.045Z,100800.59
2022-08-31T14:29:56.014Z,100811.03
2022-08-31T14:32:23.152Z,100813.38
2022-08-31T14:34:51.785Z,100821.44
2022-08-31T14:37:28.996Z,100804.34
2022-08-31T14:40:07.348Z,100804.53
2022-08-31T14:42:38.651Z,100801.19
2022-08-31T14:45:09.626Z,100787.44
2022-08-31T14:47:42.995Z,100795.28
2022-08-31T14:50:12.651Z,100795.34
2022-08-31T14:52:44.531Z,100792.81
2022-08-31T14:55:13.634Z,100783.09
2022-08-31T14:57:45.721Z,100784.88
2022-08-31T15:00:19.888Z,100780.19
2022-08-31T15:02:48.351Z,100787.53
2022-08-31T15:05:16.203Z,100786.22
2022-08-31T15:07:43.952Z,100792.63
2022-08-31T15:10:13.032Z,100782.22
2022-08-31T15:12:40.513Z,100779.69
2022-08-31T15:15:09.992Z,100773.50
2022-08-31T15:17:38.560Z,100781.66
2022-08-31T15:20:09.305Z,100787.84
2022-08-31T15:22:40.656Z,100786.19
2022-08-31T15:25:12.041Z,100783.25
2022-08-31T15:27:41.751Z,100787.19
2022-08-31T15:30:09.497Z,100779.31
2022-08-31T15:32:39.960Z,100768.50
2022-08-31T15:35:09.424Z,100778.28
2022-08-31T15:37:36.272Z,100773.97
2022-08-31T15:40:05.146Z,100775.31
2022-08-31T15:42:40.405Z,100760.63
2022-08-31T15:45:08.478Z,100760.41
2022-08-31T15:47:56.932Z,100768.72
2022-08-31T15:50:31.357Z,100769.03
2022-08-31T15:53:06.640Z,100766.91
2022-08-31T15:55:36.326Z,100769.81
2022-08-31T15:58:04.412Z,100764.34
2022-08-31T16:00:32.819Z,100757.81
2022-08-31T16:06:16.905Z,100752.00
2022-08-31T16:08:43.912Z,100745.44
2022-08-31T16:11:11.738Z,100750.81
2022-08-31T16:13:45.687Z,100760.25
2022-08-31T16:16:12.561Z,100762.16
2022-08-31T16:18:39.494Z,100764.28
2022-08-31T16:21:07.648Z,100754.69
2022-08-31T16:23:35.804Z,100751.91
2022-08-31T16:26:05.382Z,100753.81
2022-08-31T16:28:34.911Z,100752.94
2022-08-31T16:31:01.705Z,100742.41
2022-08-31T16:33:28.507Z,100743.38
2022-08-31T16:35:55.309Z,100758.41
2022-08-31T16:38:22.957Z,100745.03
2022-08-31T16:40:50.035Z,100733.31
2022-08-31T16:43:16.859Z,100736.28
2022-08-31T16:45:44.589Z,100748.28
2022-08-31T16:48:30.334Z,100740.44
2022-08-31T16:51:02.491Z,100744.84
2022-08-31T16:53:30.831Z,100749.03
2022-08-31T16:56:00.163Z,100746.06
2022-08-31T16:58:50.657Z,100751.97
2022-08-31T17:01:23.302Z,100753.72
2022-08-31T17:03:53.925Z,100743.97
2022-08-31T17:06:20.726Z,100760.91
2022-08-31T17:08:47.555Z,100746.22
2022-08-31T17:11:23.843Z,100749.06
2022-08-31T17:13:58.113Z,100733.81
2022-08-31T17:16:31.031Z,100737.19
2022-08-31T17:18:59.777Z,100728.91
2022-08-31T17:21:30.153Z,100744.16
2022-08-31T17:24:02.612Z,100744.78
2022-08-31T17:26:34.669Z,100744.19
2022-08-31T17:29:05.680Z,100741.41
2022-08-31T17:31:42.471Z,100743.59
2022-08-31T17:34:12.203Z,100740.28
2022-08-31T17:36:41.110Z,100738.91
2022-08-31T17:39:10.948Z,100744.47
2022-08-31T17:41:40.017Z,100738.91
2022-08-31T17:44:08.004Z,100740.00
2022-08-31T17:46:36.195Z,100736.91
2022-08-31T17:49:03.205Z,100737.50
2022-08-31T17:51:34.623Z,100749.50
2022-08-31T17:54:05.321Z,100749.47
2022-08-31T17:56:35.454Z,100740.28
2022-08-31T17:59:02.663Z,100746.94
2022-08-31T18:01:33.763Z,100748.09
2022-08-31T18:04:00.946Z,100739.78
2022-08-31T18:06:28.732Z,100754.00
2022-08-31T18:08:57.165Z,100747.66
2022-08-31T18:11:25.019Z,100744.84
2022-08-31T18:13:53.744Z,100751.56
2022-08-31T18:16:20.788Z,100747.47
2022-08-31T18:18:49.896Z,100746.63
2022-08-31T18:21:25.208Z,100743.34
2022-08-31T18:23:53.599Z,100753.63
2022-08-31T18:26:24.705Z,100748.91
2022-08-31T18:28:53.010Z,100762.81
2022-08-31T18:31:30.526Z,100764.22
2022-08-31T18:33:59.138Z,100766.69
2022-08-31T18:36:28.355Z,100759.75
2022-08-31T18:38:57.531Z,100755.63
2022-08-31T18:41:46.868Z,100754.78
2022-08-31T18:44:32.901Z,100751.13
2022-08-31T18:47:02.454Z,100755.03
2022-08-31T18:49:34.246Z,100761.41
2022-08-31T18:52:02.360Z,100758.91
2022-08-31T18:54:29.399Z,100765.03
2022-08-31T18:56:56.573Z,100751.69
2022-08-31T18:59:23.401Z,100771.41
2022-08-31T19:01:51.480Z,100766.69
2022-08-31T19:04:21.895Z,100765.56
2022-08-31T19:06:49.090Z,100778.31
2022-08-31T19:09:15.983Z,100778.84
2022-08-31T19:11:51.349Z,100780.50
2022-08-31T19:14:20.045Z,100778.84
2022-08-31T19:16:51.387Z,100770.50
2022-08-31T19:19:22.098Z,100787.41
2022-08-31T19:21:50.480Z,100783.78
2022-08-31T19:24:18.828Z,100801.53
2022-08-31T19:26:48.849Z,100787.06
2022-08-31T19:29:22.883Z,100797.31
2022-08-31T19:31:50.729Z,100798.13
2022-08-31T19:34:21.339Z,100800.56
2022-08-31T19:36:54.321Z,100799.44
2022-08-31T19:39:24.912Z,100796.94
2022-08-31T19:41:56.307Z,100803.84
2022-08-31T19:44:26.542Z,100798.28
2022-08-31T19:46:55.415Z,100803.25
2022-08-31T19:49:24.179Z,100804.31
2022-08-31T19:51:58.368Z,100799.59
2022-08-31T19:54:39.776Z,100808.47
2022-08-31T19:57:08.035Z,100813.38
2022-08-31T19:59:35.854Z,100819.22
2022-08-31T20:02:05.883Z,100810.59
2022-08-31T20:04:35.804Z,100813.09
2022-08-31T20:07:06.497Z,100816.97
2022-08-31T20:09:34.919Z,100813.34
2022-08-31T20:12:03.259Z,100819.94
2022-08-31T20:14:30.204Z,100824.06
2022-08-31T20:16:59.628Z,100825.97
2022-08-31T20:19:28.343Z,100828.72
2022-08-31T20:22:03.688Z,100843.59
2022-08-31T20:24:31.948Z,100840.28
2022-08-31T20:27:09.611Z,100843.84
2022-08-31T20:29:38.861Z,100839.13
2022-08-31T20:32:08.074Z,100848.22
2022-08-31T20:34:35.605Z,100842.38
2022-08-31T20:37:02.685Z,100841.47
2022-08-31T20:39:31.936Z,100846.75
2022-08-31T20:41:59.567Z,100842.81
2022-08-31T20:44:36.748Z,100841.34
2022-08-31T20:47:26.849Z,100851.56
2022-08-31T20:49:59.201Z,100851.00
2022-08-31T20:52:32.302Z,100849.53
2022-08-31T20:55:02.032Z,100838.41
2022-08-31T20:57:30.669Z,100839.47
2022-08-31T20:59:57.962Z,100841.34
2022-08-31T21:02:25.039Z,100841.03
2022-08-31T21:04:52.136Z,100845.41
2022-08-31T21:07:23.313Z,100838.44
2022-08-31T21:09:50.603Z,100842.97
2022-08-31T21:12:21.574Z,100838.53
2022-08-31T21:14:48.562Z,100839.81
2022-08-31T21:17:16.035Z,100837.56
2022-08-31T21:19:43.804Z,100844.97
2022-08-31T21:22:13.890Z,100850.44
2022-08-31T21:24:43.250Z,100852.13
2022-08-31T21:27:13.753Z,100847.09
2022-08-31T21:29:40.928Z,100845.75
2022-08-31T21:32:10.128Z,100855.09
2022-08-31T21:34:38.108Z,100846.72
2022-08-31T21:37:07.442Z,100851.09
2022-08-31T21:39:34.263Z,100855.47
2022-08-31T21:42:03.122Z,100850.13
2022-08-31T21:44:30.054Z,100850.13
2022-08-31T21:46:57.215Z,100851.78
2022-08-31T21:49:24.725Z,100852.81
2022-08-31T21:51:54.209Z,100843.13
2022-08-31T21:54:27.827Z,100843.63
2022-08-31T21:57:01.852Z,100851.03
2022-08-31T21:59:33.267Z,100841.97
2022-08-31T22:02:06.509Z,100842.66
2022-08-31T22:04:35.297Z,100846.19
2022-08-31T22:07:02.463Z,100837.81
2022-08-31T22:09:29.917Z,100848.56
2022-08-31T22:11:58.764Z,100835.22
2022-08-31T22:14:29.796Z,100843.88
2022-08-31T22:16:59.480Z,100839.31
2022-08-31T22:19:28.580Z,100848.97
2022-08-31T22:21:59.163Z,100842.84
2022-08-31T22:24:29.978Z,100848.06
2022-08-31T22:26:59.759Z,100841.78
2022-08-31T22:29:31.788Z,100843.88
2022-08-31T22:32:04.238Z,100847.72
2022-08-31T22:34:31.168Z,100842.13
2022-08-31T22:36:58.059Z,100849.25
2022-08-31T22:39:28.232Z,100840.38
2022-08-31T22:41:57.585Z,100837.88
2022-08-31T22:44:27.189Z,100840.88
2022-08-31T22:46:56.311Z,100842.72
2022-08-31T22:49:24.069Z,100838.56
2022-08-31T22:51:50.967Z,100849.59
2022-08-31T22:54:21.010Z,100838.78
2022-08-31T22:56:49.178Z,100828.91
2022-08-31T22:59:23.073Z,100836.88
2022-08-31T23:01:55.322Z,100829.66
2022-08-31T23:04:26.418Z,100835.19
2022-08-31T23:06:53.397Z,100831.84
2022-08-31T23:09:22.374Z,100826.50
2022-08-31T23:11:53.169Z,100830.34
2022-08-31T23:14:24.006Z,100828.13
2022-08-31T23:17:02.888Z,100829.84
2022-08-31T23:19:37.171Z,100831.09
2022-08-31T23:22:10.725Z,100821.97
2022-08-31T23:24:48.969Z,100831.59
2022-08-31T23:27:19.909Z,100824.75
2022-08-31T23:29:49.884Z,100822.50
2022-08-31T23:32:19.954Z,100819.13
2022-08-31T23:34:51.002Z,100815.28
2022-08-31T23:37:18.998Z,100811.78
2022-08-31T23:39:46.678Z,100803.44
2022-08-31T23:42:16.315Z,100811.97
2022-08-31T23:44:46.691Z,100803.63
2022-08-31T23:47:26.027Z,100802.78
2022-08-31T23:49:53.639Z,100805.53
2022-08-31T23:52:23.935Z,100803.75
2022-08-31T23:54:53.710Z,100798.25
2022-08-31T23:57:32.705Z,100799.59
